createdAt,value
2023-04-17T00:00:26.434Z,6.89
2023-04-17T00:15:26.605Z,6.59
2023-04-17T00:30:26.620Z,6.48
2023-04-17T00:45:27.138Z,6.54
2023-04-17T01:00:26.971Z,6.15
2023-04-17T01:15:27.360Z,6.37
2023-04-17T01:30:27.286Z,6.06
2023-04-17T01:45:27.437Z,6.34
2023-04-17T02:00:27.638Z,5.97
2023-04-17T02:15:28.418Z,6.33
2023-04-17T02:30:28.990Z,6.14
2023-04-17T02:45:29.071Z,6.01
2023-04-17T03:00:29.322Z,6.06
2023-04-17T03:15:29.325Z,5.74
2023-04-17T03:30:29.495Z,5.56
2023-04-17T03:45:29.907Z,5.36
2023-04-17T04:00:29.655Z,5.03
2023-04-17T04:15:30.166Z,4.96
2023-04-17T04:30:30.204Z,5.03
2023-04-17T04:45:30.292Z,4.99
2023-04-17T05:00:30.415Z,5.10
2023-04-17T05:15:30.326Z,5.54
2023-04-17T05:30:30.674Z,5.79
2023-04-17T05:45:31.250Z,5.99
2023-04-17T06:00:32.503Z,6.54
2023-04-17T06:15:32.822Z,6.74
2023-04-17T06:30:33.012Z,7.15
2023-04-17T06:45:33.617Z,7.61
2023-04-17T07:00:34.108Z,8.28
2023-04-17T07:15:34.440Z,10.23
2023-04-17T07:30:34.903Z,10.73
2023-04-17T07:45:34.629Z,10.82
2023-04-17T08:00:35.138Z,11.78
2023-04-17T08:15:36.523Z,12.67
2023-04-17T08:30:37.782Z,14.35
2023-04-17T08:45:37.714Z,15.35
2023-04-17T09:00:37.841Z,15.07
2023-04-17T09:15:38.520Z,15.51
2023-04-17T09:30:38.583Z,16.09
2023-04-17T09:45:39.180Z,16.23
2023-04-17T10:00:39.650Z,16.98
2023-04-17T10:15:40.325Z,17.23
2023-04-17T10:30:43.322Z,17.79
2023-04-17T10:45:45.024Z,17.75
2023-04-17T11:00:45.554Z,17.18
2023-04-17T11:15:46.168Z,16.46
2023-04-17T11:30:47.832Z,17.00
2023-04-17T11:45:48.364Z,17.01
2023-04-17T12:00:48.897Z,16.00
2023-04-17T12:15:49.139Z,15.47
2023-04-17T12:30:50.415Z,14.04
2023-04-17T12:45:51.068Z,12.60
2023-04-17T13:00:51.600Z,11.32
2023-04-17T13:15:52.776Z,11.27
2023-04-17T13:30:53.939Z,10.88
2023-04-17T13:45:55.536Z,10.33
2023-04-17T14:00:57.860Z,9.83
2023-04-17T14:15:58.367Z,9.65
2023-04-17T14:30:58.846Z,9.57
2023-04-17T14:45:58.893Z,9.43
2023-04-17T15:00:59.226Z,9.21
2023-04-17T15:15:59.290Z,9.18
2023-04-17T15:30:59.524Z,9.29
2023-04-17T15:46:00.183Z,8.95
2023-04-17T16:01:01.133Z,8.48
2023-04-17T16:16:01.971Z,8.28
2023-04-17T16:31:03.187Z,8.28
2023-04-17T16:46:14.446Z,8.30
2023-04-17T17:01:09.855Z,8.10
2023-04-17T17:16:10.893Z,7.90
2023-04-17T17:31:11.102Z,7.72
2023-04-17T17:46:11.128Z,7.69
2023-04-17T18:01:11.239Z,7.57
2023-04-17T18:16:11.324Z,7.40
2023-04-17T18:31:11.793Z,7.40
2023-04-17T18:46:11.889Z,7.17
2023-04-17T19:01:11.617Z,7.07
2023-04-17T19:16:12.133Z,6.98
2023-04-17T19:31:12.272Z,6.87
2023-04-17T19:46:12.818Z,6.69
2023-04-17T20:01:13.887Z,6.88
2023-04-17T20:16:14.506Z,6.77
2023-04-17T20:31:14.649Z,6.73
2023-04-17T20:46:14.704Z,6.74
2023-04-17T21:01:15.224Z,6.70
2023-04-17T21:16:15.428Z,6.51
2023-04-17T21:31:16.400Z,6.74
2023-04-17T21:46:16.123Z,6.43
2023-04-17T22:01:16.239Z,6.58
2023-04-17T22:16:16.824Z,6.61
2023-04-17T22:31:16.891Z,6.41
2023-04-17T22:46:17.090Z,6.34
2023-04-17T23:01:17.291Z,6.18
2023-04-17T23:16:17.976Z,5.86
2023-04-17T23:31:18.866Z,5.58
2023-04-17T23:46:19.508Z,5.35
